createdAt,value
2023-06-14T00:00:55.340Z,39.58
2023-06-14T00:03:26.200Z,39.09
2023-06-14T00:05:56.433Z,39.13
2023-06-14T00:08:27.013Z,39.44
2023-06-14T00:10:57.068Z,39.54
2023-06-14T00:13:27.023Z,39.77
2023-06-14T00:15:59.657Z,39.61
2023-06-14T00:18:32.218Z,40.00
2023-06-14T00:21:03.490Z,39.79
2023-06-14T00:23:33.456Z,39.68
2023-06-14T00:26:03.450Z,39.78
2023-06-14T00:28:33.468Z,40.07
2023-06-14T00:31:05.997Z,40.36
2023-06-14T00:33:36.014Z,40.26
2023-06-14T00:36:06.008Z,40.47
2023-06-14T00:38:36.435Z,40.63
2023-06-14T00:41:06.472Z,40.99
2023-06-14T00:43:36.390Z,40.81
2023-06-14T00:46:09.100Z,40.62
2023-06-14T00:48:40.399Z,40.77
2023-06-14T00:51:11.182Z,40.77
2023-06-14T00:53:42.237Z,40.48
2023-06-14T00:56:14.491Z,40.53
2023-06-14T00:58:45.036Z,40.27
2023-06-14T01:01:17.710Z,40.59
2023-06-14T01:03:47.810Z,40.72
2023-06-14T01:06:28.457Z,41.10
2023-06-14T01:09:11.576Z,41.47
2023-06-14T01:11:51.836Z,40.92
2023-06-14T01:14:22.522Z,40.16
2023-06-14T01:16:56.604Z,40.25
2023-06-14T01:19:27.385Z,40.62
2023-06-14T01:21:57.486Z,40.29
2023-06-14T01:24:33.468Z,41.18
2023-06-14T01:27:04.872Z,40.76
2023-06-14T01:29:37.555Z,40.63
2023-06-14T01:32:08.631Z,41.18
2023-06-14T01:34:38.853Z,41.34
2023-06-14T01:37:09.279Z,40.92
2023-06-14T01:39:42.164Z,41.64
2023-06-14T01:42:12.433Z,41.38
2023-06-14T01:44:42.756Z,41.39
2023-06-14T01:47:13.702Z,41.45
2023-06-14T01:49:44.191Z,41.38
2023-06-14T01:52:14.997Z,41.26
2023-06-14T01:54:49.086Z,41.38
2023-06-14T01:57:19.326Z,40.91
2023-06-14T01:59:50.854Z,41.22
2023-06-14T02:02:21.170Z,41.45
2023-06-14T02:04:51.437Z,41.62
2023-06-14T02:07:21.634Z,41.52
2023-06-14T02:09:54.325Z,41.99
2023-06-14T02:12:24.227Z,41.80
2023-06-14T02:14:54.161Z,41.86
2023-06-14T02:17:24.383Z,42.07
2023-06-14T02:19:54.673Z,42.11
2023-06-14T02:22:24.657Z,42.00
2023-06-14T02:25:02.098Z,41.80
2023-06-14T02:27:32.816Z,41.68
2023-06-14T02:30:02.823Z,41.71
2023-06-14T02:32:33.171Z,42.11
2023-06-14T02:35:03.568Z,42.25
2023-06-14T02:37:33.585Z,42.03
2023-06-14T02:40:09.496Z,42.64
2023-06-14T02:42:39.401Z,42.43
2023-06-14T02:45:11.048Z,42.27
2023-06-14T02:47:41.306Z,41.97
2023-06-14T02:50:12.862Z,42.23
2023-06-14T02:52:43.187Z,41.85
2023-06-14T02:55:15.961Z,42.35
2023-06-14T02:57:46.050Z,42.43
2023-06-14T03:00:17.119Z,41.94
2023-06-14T03:02:48.017Z,42.17
2023-06-14T03:05:22.706Z,42.32
2023-06-14T03:07:52.703Z,42.49
2023-06-14T03:10:30.978Z,42.74
2023-06-14T03:13:02.474Z,42.88
2023-06-14T03:15:35.069Z,42.66
2023-06-14T03:18:05.224Z,42.83
2023-06-14T03:20:35.333Z,42.79
2023-06-14T03:23:07.133Z,42.64
2023-06-14T03:25:39.953Z,43.10
2023-06-14T03:28:09.931Z,43.29
2023-06-14T03:30:39.949Z,43.11
2023-06-14T03:33:10.237Z,43.20
2023-06-14T03:35:41.163Z,43.29
2023-06-14T03:38:11.268Z,43.51
2023-06-14T03:40:43.874Z,43.56
2023-06-14T03:43:13.990Z,43.25
2023-06-14T03:45:44.568Z,43.80
2023-06-14T03:48:14.733Z,43.31
2023-06-14T03:50:45.969Z,43.77
2023-06-14T03:53:17.153Z,43.58
2023-06-14T03:58:22.834Z,44.20
2023-06-14T04:00:52.830Z,44.54
2023-06-14T04:03:31.267Z,44.46
2023-06-14T04:06:04.169Z,43.95
2023-06-14T04:08:34.378Z,44.28
2023-06-14T04:11:06.922Z,45.09
2023-06-14T04:13:37.519Z,44.76
2023-06-14T04:16:09.928Z,45.04
2023-06-14T04:18:39.918Z,44.72
2023-06-14T04:21:09.875Z,44.77
2023-06-14T04:23:39.939Z,44.59
2023-06-14T04:26:12.618Z,45.45
2023-06-14T04:28:42.645Z,44.66
2023-06-14T04:31:12.994Z,44.69
2023-06-14T04:33:45.266Z,44.43
2023-06-14T04:36:19.068Z,44.62
2023-06-14T04:38:50.556Z,44.35
2023-06-14T04:41:24.315Z,44.70
2023-06-14T04:43:54.943Z,44.32
2023-06-14T04:46:25.289Z,44.35
2023-06-14T04:48:55.788Z,44.20
2023-06-14T04:51:31.165Z,44.26
2023-06-14T04:54:02.592Z,44.21
2023-06-14T04:56:36.142Z,44.55
2023-06-14T04:59:06.488Z,44.25
2023-06-14T05:01:36.898Z,44.89
2023-06-14T05:04:07.874Z,44.99
2023-06-14T05:06:37.964Z,44.94
2023-06-14T05:09:07.970Z,44.79
2023-06-14T05:11:41.193Z,44.99
2023-06-14T05:14:11.293Z,45.00
2023-06-14T05:16:41.260Z,44.88
2023-06-14T05:19:11.457Z,44.85
2023-06-14T05:21:43.608Z,44.83
2023-06-14T05:24:14.176Z,44.99
2023-06-14T05:26:47.022Z,45.35
2023-06-14T05:29:17.473Z,45.18
2023-06-14T05:31:47.553Z,45.21
2023-06-14T05:34:17.622Z,45.62
2023-06-14T05:36:48.063Z,45.38
2023-06-14T05:39:19.768Z,45.67
2023-06-14T05:41:52.427Z,46.02
2023-06-14T05:44:22.468Z,45.63
2023-06-14T05:46:52.397Z,45.85
2023-06-14T05:49:22.446Z,46.68
2023-06-14T05:51:52.560Z,46.23
2023-06-14T05:54:22.495Z,46.19
2023-06-14T05:56:55.758Z,46.26
2023-06-14T05:59:25.717Z,45.41
2023-06-14T06:01:55.677Z,45.64
2023-06-14T06:04:25.987Z,46.24
2023-06-14T06:06:56.154Z,45.65
2023-06-14T06:09:26.236Z,45.85
2023-06-14T06:11:58.809Z,45.84
2023-06-14T06:14:28.815Z,45.99
2023-06-14T06:16:58.880Z,45.87
2023-06-14T06:19:28.936Z,45.93
2023-06-14T06:21:58.905Z,45.67
2023-06-14T06:24:28.940Z,45.65
2023-06-14T06:27:01.665Z,45.64
2023-06-14T06:29:31.693Z,45.38
2023-06-14T06:32:01.631Z,45.41
2023-06-14T06:34:31.568Z,44.65
2023-06-14T06:37:02.440Z,44.04
2023-06-14T06:39:32.337Z,43.47
2023-06-14T06:42:04.979Z,42.77
2023-06-14T06:44:35.053Z,42.63
2023-06-14T06:47:05.002Z,42.25
2023-06-14T06:49:35.028Z,41.89
2023-06-14T06:52:06.255Z,40.83
2023-06-14T06:54:37.419Z,40.52
2023-06-14T06:57:10.183Z,39.70
2023-06-14T06:59:40.172Z,38.74
2023-06-14T07:02:10.627Z,38.90
2023-06-14T07:04:40.676Z,38.83
2023-06-14T07:07:10.804Z,38.99
2023-06-14T07:09:42.009Z,38.56
2023-06-14T07:12:15.357Z,38.06
2023-06-14T07:14:45.366Z,38.44
2023-06-14T07:17:15.444Z,36.95
2023-06-14T07:19:45.896Z,37.14
2023-06-14T07:22:15.952Z,37.26
2023-06-14T07:24:46.379Z,36.40
2023-06-14T07:27:19.014Z,35.74
2023-06-14T07:29:50.310Z,36.18
2023-06-14T07:32:20.296Z,35.60
2023-06-14T07:34:50.359Z,35.60
2023-06-14T07:37:20.261Z,35.94
2023-06-14T07:39:50.267Z,34.50
2023-06-14T07:42:22.865Z,34.63
2023-06-14T07:44:53.678Z,33.57
2023-06-14T07:47:23.766Z,33.66
2023-06-14T07:49:53.935Z,33.99
2023-06-14T07:52:23.931Z,33.60
2023-06-14T07:54:53.964Z,33.58
2023-06-14T07:57:26.689Z,32.11
2023-06-14T07:59:56.719Z,31.38
2023-06-14T08:02:28.099Z,31.98
2023-06-14T08:04:58.551Z,32.02
2023-06-14T08:07:28.598Z,32.19
2023-06-14T08:10:01.624Z,32.16
2023-06-14T08:12:34.334Z,31.36
2023-06-14T08:15:13.960Z,31.85
2023-06-14T08:17:46.759Z,30.62
2023-06-14T08:20:18.327Z,31.40
2023-06-14T08:22:50.711Z,30.89
2023-06-14T08:25:20.825Z,31.11
2023-06-14T08:27:53.529Z,30.20
2023-06-14T08:30:23.802Z,30.20
2023-06-14T08:35:31.372Z,30.45
2023-06-14T08:38:01.303Z,30.41
2023-06-14T08:40:33.879Z,30.14
2023-06-14T08:43:06.925Z,30.32
2023-06-14T08:45:36.930Z,30.50
2023-06-14T08:48:08.993Z,30.61
2023-06-14T08:50:40.833Z,30.07
2023-06-14T08:53:14.770Z,29.67
2023-06-14T08:55:49.114Z,29.64
2023-06-14T08:58:21.720Z,28.49
2023-06-14T09:00:53.614Z,28.68
2023-06-14T09:03:24.511Z,29.24
2023-06-14T09:05:55.773Z,29.18
2023-06-14T09:08:26.256Z,28.69
2023-06-14T09:10:56.656Z,28.48
2023-06-14T09:13:32.036Z,29.00
2023-06-14T09:16:02.287Z,28.53
2023-06-14T09:18:39.715Z,28.29
2023-06-14T09:21:11.146Z,27.85
2023-06-14T09:23:42.939Z,28.01
2023-06-14T09:26:13.698Z,28.03
2023-06-14T09:28:49.505Z,27.21
2023-06-14T09:31:21.019Z,27.32
2023-06-14T09:33:53.482Z,27.58
2023-06-14T09:36:26.940Z,26.36
2023-06-14T09:38:57.587Z,25.95
2023-06-14T09:41:40.657Z,26.10
2023-06-14T09:44:19.888Z,25.58
2023-06-14T09:46:52.728Z,25.58
2023-06-14T09:49:23.018Z,26.27
2023-06-14T09:51:57.125Z,26.25
2023-06-14T09:54:29.634Z,26.58
2023-06-14T09:57:00.530Z,26.09
2023-06-14T09:59:36.994Z,25.26
2023-06-14T10:02:15.564Z,25.06
2023-06-14T10:04:51.706Z,24.61
2023-06-14T10:07:24.932Z,24.64
2023-06-14T10:09:57.010Z,24.65
2023-06-14T10:12:26.937Z,25.17
2023-06-14T10:15:00.513Z,25.00
2023-06-14T10:17:39.896Z,24.65
2023-06-14T10:20:30.400Z,25.38
2023-06-14T10:23:06.101Z,24.65
2023-06-14T10:25:37.294Z,25.21
2023-06-14T10:28:18.236Z,25.36
2023-06-14T10:31:09.189Z,24.73
2023-06-14T10:33:42.452Z,25.01
2023-06-14T10:36:29.649Z,24.62
2023-06-14T10:39:09.627Z,24.76
2023-06-14T10:41:42.115Z,24.78
2023-06-14T10:44:36.288Z,24.37
2023-06-14T10:47:12.857Z,23.37
2023-06-14T10:49:45.803Z,23.61
2023-06-14T10:52:20.973Z,23.52
2023-06-14T10:55:03.278Z,23.32
2023-06-14T10:57:39.042Z,23.73
2023-06-14T11:00:23.659Z,24.08
2023-06-14T11:03:24.620Z,23.08
2023-06-14T11:05:58.343Z,22.70
2023-06-14T11:08:43.566Z,23.31
2023-06-14T11:11:14.754Z,23.76
2023-06-14T11:13:48.226Z,23.24
2023-06-14T11:16:20.467Z,23.12
2023-06-14T11:18:50.923Z,23.22
2023-06-14T11:21:26.451Z,22.16
2023-06-14T11:23:57.410Z,23.66
2023-06-14T11:26:31.508Z,22.08
2023-06-14T11:29:03.686Z,22.77
2023-06-14T11:31:34.180Z,23.17
2023-06-14T11:34:05.269Z,22.68
2023-06-14T11:36:38.601Z,23.19
2023-06-14T11:39:10.029Z,23.57
2023-06-14T11:41:44.857Z,22.93
2023-06-14T11:44:15.824Z,23.71
2023-06-14T11:46:45.836Z,23.22
2023-06-14T11:49:15.837Z,23.61
2023-06-14T11:51:48.512Z,23.11
2023-06-14T11:54:18.910Z,23.04
2023-06-14T11:56:48.946Z,23.64
2023-06-14T11:59:18.937Z,23.28
2023-06-14T12:01:49.446Z,22.64
2023-06-14T12:04:27.928Z,23.07
2023-06-14T12:07:00.579Z,22.58
2023-06-14T12:09:30.545Z,23.70
2023-06-14T12:12:05.178Z,22.34
2023-06-14T12:14:35.481Z,22.85
2023-06-14T12:17:10.103Z,22.56
2023-06-14T12:19:46.643Z,22.73
2023-06-14T12:22:19.837Z,22.88
2023-06-14T12:24:50.474Z,22.91
2023-06-14T12:27:21.699Z,22.89
2023-06-14T12:30:03.138Z,23.53
2023-06-14T12:32:35.251Z,23.30
2023-06-14T12:35:07.185Z,23.78
2023-06-14T12:37:39.855Z,23.90
2023-06-14T12:40:12.831Z,22.81
2023-06-14T12:42:42.868Z,23.17
2023-06-14T12:45:15.141Z,23.60
2023-06-14T12:47:45.351Z,22.90
2023-06-14T12:50:18.654Z,22.49
2023-06-14T12:52:51.604Z,22.61
2023-06-14T12:55:21.831Z,22.92
2023-06-14T12:57:52.812Z,23.12
2023-06-14T13:00:24.088Z,23.14
2023-06-14T13:02:54.720Z,23.23
2023-06-14T13:05:24.656Z,23.23
2023-06-14T13:07:59.745Z,23.22
2023-06-14T13:10:30.578Z,23.27
2023-06-14T13:13:01.759Z,23.29
2023-06-14T13:15:31.734Z,23.50
2023-06-14T13:18:02.060Z,23.22
2023-06-14T13:20:32.086Z,23.55
2023-06-14T13:23:07.177Z,22.97
2023-06-14T13:25:37.065Z,23.21
2023-06-14T13:28:08.714Z,22.82
2023-06-14T13:30:38.726Z,22.93
2023-06-14T13:33:08.942Z,23.37
2023-06-14T13:35:38.997Z,23.34
2023-06-14T13:38:13.630Z,22.90
2023-06-14T13:40:43.697Z,23.23
2023-06-14T13:43:13.723Z,22.62
2023-06-14T13:45:43.692Z,23.03
2023-06-14T13:48:13.892Z,22.29
2023-06-14T13:50:43.845Z,22.67
2023-06-14T13:53:16.452Z,22.57
2023-06-14T13:55:46.456Z,22.80
2023-06-14T13:58:16.436Z,22.62
2023-06-14T14:00:46.492Z,22.70
2023-06-14T14:03:16.550Z,23.24
2023-06-14T14:05:46.760Z,22.47
2023-06-14T14:08:19.272Z,22.14
2023-06-14T14:10:49.333Z,22.75
2023-06-14T14:13:19.412Z,22.56
2023-06-14T14:15:50.441Z,22.39
2023-06-14T14:18:22.125Z,22.36
2023-06-14T14:20:52.693Z,23.21
2023-06-14T14:23:26.023Z,22.40
2023-06-14T14:25:55.997Z,22.78
2023-06-14T14:28:25.982Z,22.41
2023-06-14T14:30:56.281Z,23.28
2023-06-14T14:33:26.227Z,22.95
2023-06-14T14:35:56.193Z,22.69
2023-06-14T14:38:28.727Z,23.42
2023-06-14T14:40:58.759Z,22.17
2023-06-14T14:43:31.461Z,22.91
2023-06-14T14:46:01.581Z,23.15
2023-06-14T14:48:31.607Z,23.23
2023-06-14T14:51:01.701Z,22.95
2023-06-14T14:53:34.381Z,22.24
2023-06-14T14:56:06.949Z,22.59
2023-06-14T14:58:37.277Z,23.58
2023-06-14T15:01:07.348Z,23.25
2023-06-14T15:03:53.562Z,23.57
2023-06-14T15:06:30.457Z,23.98
2023-06-14T15:09:03.043Z,23.41
2023-06-14T15:11:33.133Z,23.39
2023-06-14T15:14:03.195Z,23.56
2023-06-14T15:16:33.394Z,23.68
2023-06-14T15:19:03.404Z,23.64
2023-06-14T15:21:33.506Z,23.48
2023-06-14T15:24:09.752Z,23.41
2023-06-14T15:26:39.727Z,23.81
2023-06-14T15:29:09.676Z,22.58
2023-06-14T15:31:39.717Z,23.22
2023-06-14T15:34:09.902Z,22.63
2023-06-14T15:36:40.383Z,22.77
2023-06-14T15:39:13.220Z,23.42
2023-06-14T15:41:43.204Z,23.81
2023-06-14T15:44:13.617Z,23.71
2023-06-14T15:46:43.642Z,23.53
2023-06-14T15:49:14.708Z,23.60
2023-06-14T15:51:48.103Z,24.10
2023-06-14T15:54:20.674Z,23.25
2023-06-14T15:56:50.633Z,23.25
2023-06-14T15:59:20.611Z,24.25
2023-06-14T16:01:50.548Z,23.40
2023-06-14T16:04:20.727Z,23.17
2023-06-14T16:06:50.799Z,24.34
2023-06-14T16:09:23.463Z,23.65
2023-06-14T16:11:53.415Z,23.89
2023-06-14T16:14:23.387Z,24.05
2023-06-14T16:16:55.460Z,23.60
2023-06-14T16:19:28.753Z,23.87
2023-06-14T16:21:59.998Z,24.42
2023-06-14T16:24:32.792Z,24.12
2023-06-14T16:27:03.586Z,24.26
2023-06-14T16:29:33.613Z,24.50
2023-06-14T16:32:03.620Z,24.28
2023-06-14T16:34:36.168Z,24.54
2023-06-14T16:37:06.834Z,24.20
2023-06-14T16:39:39.870Z,24.45
2023-06-14T16:42:11.900Z,24.05
2023-06-14T16:44:42.002Z,24.80
2023-06-14T16:47:13.703Z,24.46
2023-06-14T16:49:43.751Z,24.08
2023-06-14T16:52:13.817Z,24.86
2023-06-14T16:54:46.307Z,25.02
2023-06-14T16:57:16.624Z,25.06
2023-06-14T16:59:51.044Z,24.52
2023-06-14T17:02:21.165Z,24.62
2023-06-14T17:04:51.213Z,24.73
2023-06-14T17:07:21.595Z,24.81
2023-06-14T17:09:54.176Z,24.99
2023-06-14T17:12:24.132Z,25.29
2023-06-14T17:14:54.095Z,24.75
2023-06-14T17:17:24.260Z,25.16
2023-06-14T17:19:54.173Z,25.08
2023-06-14T17:22:24.148Z,24.88
2023-06-14T17:24:57.040Z,25.23
2023-06-14T17:27:27.047Z,25.58
2023-06-14T17:29:57.085Z,25.25
2023-06-14T17:32:27.088Z,25.54
2023-06-14T17:34:57.021Z,24.99
2023-06-14T17:37:28.111Z,25.70
2023-06-14T17:40:00.658Z,25.47
2023-06-14T17:42:30.634Z,25.79
2023-06-14T17:45:00.643Z,25.38
2023-06-14T17:47:36.410Z,25.40
2023-06-14T17:50:07.584Z,25.27
2023-06-14T17:52:37.620Z,25.46
2023-06-14T17:55:11.267Z,26.04
2023-06-14T17:57:41.237Z,26.40
2023-06-14T18:00:12.874Z,25.89
2023-06-14T18:02:44.448Z,26.37
2023-06-14T18:05:16.390Z,26.76
2023-06-14T18:07:46.422Z,26.88
2023-06-14T18:10:20.197Z,27.42
2023-06-14T18:12:50.208Z,27.25
2023-06-14T18:15:20.312Z,27.67
2023-06-14T18:17:51.865Z,27.76
2023-06-14T18:20:22.038Z,27.71
2023-06-14T18:22:53.631Z,28.42
2023-06-14T18:25:27.839Z,27.82
2023-06-14T18:27:57.826Z,28.18
2023-06-14T18:30:28.354Z,28.19
2023-06-14T18:32:58.404Z,27.98
2023-06-14T18:35:28.516Z,28.79
2023-06-14T18:37:58.501Z,28.25
2023-06-14T18:40:31.224Z,28.44
2023-06-14T18:43:03.123Z,28.85
2023-06-14T18:45:34.412Z,28.75
2023-06-14T18:48:04.473Z,29.86
2023-06-14T18:50:35.644Z,29.77
2023-06-14T18:53:05.607Z,30.16
2023-06-14T18:55:38.154Z,30.49
2023-06-14T18:58:08.042Z,30.20
2023-06-14T19:00:38.063Z,30.31
2023-06-14T19:03:08.233Z,30.84
2023-06-14T19:05:38.369Z,30.96
2023-06-14T19:08:10.588Z,30.77
2023-06-14T19:10:43.392Z,31.80
2023-06-14T19:13:13.354Z,30.91
2023-06-14T19:15:44.871Z,31.46
2023-06-14T19:18:15.016Z,31.99
2023-06-14T19:20:45.050Z,32.40
2023-06-14T19:23:15.068Z,31.87
2023-06-14T19:25:47.613Z,32.40
2023-06-14T19:28:17.701Z,33.03
2023-06-14T19:30:47.700Z,32.83
2023-06-14T19:33:18.278Z,33.43
2023-06-14T19:35:48.410Z,32.99
2023-06-14T19:38:19.623Z,33.04
2023-06-14T19:40:52.233Z,33.94
2023-06-14T19:43:22.148Z,33.61
2023-06-14T19:45:52.121Z,33.42
2023-06-14T19:48:22.271Z,33.55
2023-06-14T19:50:52.568Z,33.49
2023-06-14T19:53:22.785Z,33.83
2023-06-14T19:55:57.788Z,33.64
2023-06-14T19:58:27.756Z,33.97
2023-06-14T20:00:57.739Z,34.20
2023-06-14T20:03:27.831Z,33.62
2023-06-14T20:05:58.202Z,34.58
2023-06-14T20:08:31.851Z,34.01
2023-06-14T20:11:04.446Z,34.88
2023-06-14T20:13:34.429Z,34.28
2023-06-14T20:16:04.655Z,35.29
2023-06-14T20:18:34.720Z,35.08
2023-06-14T20:21:06.345Z,35.37
2023-06-14T20:23:37.451Z,35.95
2023-06-14T20:26:10.136Z,35.80
2023-06-14T20:28:40.258Z,35.89
2023-06-14T20:31:12.877Z,36.26
2023-06-14T20:33:42.848Z,36.28
2023-06-14T20:36:12.910Z,36.15
2023-06-14T20:38:42.939Z,36.28
2023-06-14T20:41:16.388Z,37.21
2023-06-14T20:43:46.593Z,36.57
2023-06-14T20:46:21.175Z,37.51
2023-06-14T20:48:51.222Z,37.52
2023-06-14T20:51:21.334Z,37.33
2023-06-14T20:53:51.234Z,37.49
2023-06-14T20:56:24.429Z,38.09
2023-06-14T20:58:55.134Z,38.49
2023-06-14T21:01:36.509Z,38.11
2023-06-14T21:04:08.284Z,38.43
2023-06-14T21:06:40.096Z,38.73
2023-06-14T21:09:10.149Z,38.13
2023-06-14T21:11:42.860Z,38.68
2023-06-14T21:14:12.900Z,38.87
2023-06-14T21:16:42.845Z,38.75
2023-06-14T21:19:13.013Z,38.72
2023-06-14T21:21:42.973Z,38.93
2023-06-14T21:24:12.926Z,39.53
2023-06-14T21:26:45.473Z,40.09
2023-06-14T21:29:15.511Z,39.93
2023-06-14T21:31:48.810Z,40.24
2023-06-14T21:34:19.050Z,39.94
2023-06-14T21:36:49.702Z,41.07
2023-06-14T21:39:19.596Z,40.97
2023-06-14T21:41:53.598Z,41.79
2023-06-14T21:44:23.721Z,41.82
2023-06-14T21:46:53.687Z,42.00
2023-06-14T21:49:23.635Z,41.98
2023-06-14T21:51:53.514Z,42.31
2023-06-14T21:54:23.478Z,42.45
2023-06-14T21:56:56.153Z,43.04
2023-06-14T21:59:26.381Z,42.97
2023-06-14T22:01:56.341Z,42.90
2023-06-14T22:04:26.282Z,43.08
2023-06-14T22:06:57.934Z,43.12
2023-06-14T22:09:27.971Z,43.28
2023-06-14T22:12:01.384Z,43.71
2023-06-14T22:14:32.218Z,43.67
2023-06-14T22:17:03.943Z,43.81
2023-06-14T22:19:34.597Z,43.71
2023-06-14T22:22:04.486Z,43.90
2023-06-14T22:24:34.608Z,43.79
2023-06-14T22:27:10.425Z,44.16
2023-06-14T22:29:44.861Z,44.26
2023-06-14T22:32:15.591Z,44.33
2023-06-14T22:34:46.192Z,44.56
2023-06-14T22:37:19.608Z,45.08
2023-06-14T22:39:49.622Z,44.37
2023-06-14T22:42:22.705Z,45.21
2023-06-14T22:44:52.657Z,45.10
2023-06-14T22:47:23.204Z,45.40
2023-06-14T22:50:08.237Z,44.80
2023-06-14T22:52:41.709Z,45.44
2023-06-14T22:55:12.897Z,45.64
2023-06-14T22:57:46.768Z,46.28
2023-06-14T23:00:18.666Z,46.16
2023-06-14T23:02:49.284Z,46.12
2023-06-14T23:05:20.490Z,45.62
2023-06-14T23:07:50.549Z,46.39
2023-06-14T23:10:24.115Z,46.41
2023-06-14T23:12:58.842Z,46.84
2023-06-14T23:15:29.942Z,46.58
2023-06-14T23:17:59.920Z,47.25
2023-06-14T23:20:30.671Z,47.24
2023-06-14T23:23:03.831Z,47.69
2023-06-14T23:25:35.937Z,47.41
2023-06-14T23:28:09.627Z,48.13
2023-06-14T23:30:40.078Z,48.21
2023-06-14T23:33:10.055Z,47.94
2023-06-14T23:35:41.742Z,48.04
2023-06-14T23:38:13.355Z,48.18
2023-06-14T23:40:43.348Z,48.07
2023-06-14T23:43:20.744Z,48.78
2023-06-14T23:45:54.257Z,48.38
2023-06-14T23:48:26.790Z,48.44
2023-06-14T23:50:56.878Z,48.46
2023-06-14T23:53:28.522Z,48.65
2023-06-14T23:55:58.429Z,48.80
2023-06-14T23:58:32.600Z,49.05
